Burns Municipal Airport
KBNO : now visible

Airfield :











YOU CAN JOIN US ON...

 
LOGIN :

Register | Disclaimer

   EN    FR    IT 

 









Legend :    VFR   Marginal VFR   IFR   Intensive IFR   Very Intensive IFR
Visi :
Ceiling :
>= 8 km
>= 3000ft
5 to 8 km
1000 to 3000 ft
1500m to 5 km
500 to 1000 ft
800 to 1500m
200 to 500 ft
< 800m
< 200 ft
Symbols :   Thunderstorms  Fog  Heavy snow  Heavy precipitations  Wind > 20 kt







- Airport Elevation : 4148 ft


KBNO - Burns Municipal

CURRENT METAR :
  • 260253Z AUTO 34008KT 10SM CLR 22/00 A3014 RMK AO2 SLP178 T02170000 53010

EXPIRED METARs :
  • 260153Z AUTO 33009KT 10SM CLR 25/01 A3013 RMK AO2 SLP175 T02500006
  • 260053Z AUTO 34009KT 10SM CLR 27/01 A3012 RMK AO2 SLP173 T02720006

TAF KBNO
Valid from the 26 at 00:00 until the 27 at 00:00 UTC


252320Z 2600/2624 30014KT P6SM SKC
FM260300 31008KT P6SM SKC
FM261000 VRB05KT P6SM SKC
No reported NOTAMs for that airfield.



MET'MAP, your aeronautical weather chart ! - Copyright ORBIFLY December 2007 - Disclaimer

ORBIFLY MET'MAP TEAM :

Programming & Development : Alexandra Zaïnal
Concept & Development : Baudouin d'Aumeries
Co-Development & Prog : Marc-Olivier Méhu
Technical & hardware support : Manuel Goepfert

Contact : metmap@orbifly.com




SOURCES & CREDITS :

   NOAA       Earth
Advisory